createdAt,value
2018-11-28T00:02:18.059Z,96860.00
2018-11-28T00:07:26.959Z,96862.00
2018-11-28T00:12:29.695Z,96860.00
2018-11-28T00:17:39.453Z,96863.00
2018-11-28T00:22:48.247Z,96870.00
2018-11-28T00:27:56.995Z,96863.00
2018-11-28T00:32:59.803Z,96881.00
2018-11-28T00:38:08.531Z,96865.00
2018-11-28T00:43:17.328Z,96878.00
2018-11-28T00:48:26.179Z,96876.00
2018-11-28T00:53:28.960Z,96873.00
2018-11-28T00:58:37.604Z,96877.00
2018-11-28T01:03:46.359Z,96881.00
2018-11-28T01:08:54.958Z,96876.00
2018-11-28T02:08:18.087Z,96929.00
2018-11-28T02:13:26.863Z,96941.00
2018-11-28T02:18:35.555Z,96942.00
2018-11-28T02:23:44.275Z,96945.00
2018-11-28T04:04:27.947Z,97012.00
2018-11-28T04:09:30.666Z,97015.00
2018-11-28T04:15:55.574Z,97024.00
2018-11-28T04:21:02.887Z,97021.00
2018-11-28T04:26:05.781Z,97024.00
2018-11-28T04:31:10.756Z,97025.00
2018-11-28T04:36:14.124Z,97033.00
2018-11-28T04:41:22.948Z,97035.00
2018-11-28T04:46:26.483Z,97025.00
2018-11-28T04:51:29.919Z,97022.00
2018-11-28T04:56:38.595Z,97017.00
2018-11-28T05:01:41.540Z,97014.00
2018-11-28T05:18:54.610Z,97002.00
2018-11-28T05:23:58.510Z,97012.00
2018-11-28T05:29:01.371Z,97011.00
2018-11-28T05:34:05.150Z,97018.00
2018-11-28T05:39:13.903Z,97023.00
2018-11-28T05:44:19.743Z,97033.00
2018-11-28T05:49:26.512Z,97037.00
2018-11-28T05:54:30.099Z,97030.00
2018-11-28T05:59:36.402Z,96966.00
2018-11-28T06:04:40.179Z,97042.00
2018-11-28T06:09:43.452Z,97044.00
2018-11-28T06:14:49.981Z,97046.00
2018-11-28T06:19:53.462Z,97045.00
2018-11-28T06:24:57.900Z,97042.00
2018-11-28T06:30:00.790Z,97054.00
2018-11-28T06:35:04.435Z,97052.00
2018-11-28T06:40:16.502Z,97027.00
2018-11-28T06:45:25.124Z,97063.00
2018-11-28T06:50:27.874Z,97073.00
2018-11-28T06:55:34.616Z,97063.00
2018-11-28T07:00:39.079Z,97075.00
2018-11-28T07:05:47.820Z,97091.00
2018-11-28T07:10:50.791Z,97095.00
2018-11-28T07:15:58.624Z,97108.00
2018-11-28T07:21:04.487Z,97104.00
2018-11-28T07:26:13.249Z,97116.00
2018-11-28T07:31:16.155Z,97110.00
2018-11-28T07:36:22.619Z,97116.00
2018-11-28T07:41:28.476Z,97128.00
2018-11-28T07:46:33.078Z,97128.00
2018-11-28T07:51:40.578Z,97135.00
2018-11-28T07:56:44.263Z,97135.00
2018-11-28T08:01:47.107Z,97137.00
2018-11-28T08:06:52.943Z,97150.00
2018-11-28T08:11:57.487Z,97143.00
2018-11-28T08:17:00.376Z,97136.00
2018-11-28T08:22:03.255Z,97138.00
2018-11-28T08:27:07.574Z,97150.00
2018-11-28T08:32:13.424Z,97148.00
2018-11-28T08:37:18.608Z,97145.00
2018-11-28T08:42:22.067Z,97144.00
2018-11-28T08:47:26.679Z,97152.00
2018-11-28T08:52:32.519Z,97162.00
2018-11-28T08:57:41.086Z,97166.00
2018-11-28T09:02:52.177Z,97175.00
2018-11-28T09:07:55.167Z,97169.00
2018-11-28T09:13:03.719Z,97177.00
2018-11-28T09:18:03.122Z,97185.00
2018-11-28T09:23:06.638Z,97185.00
2018-11-28T09:28:09.458Z,97198.00
2018-11-28T09:33:12.448Z,97192.00
2018-11-28T09:38:21.465Z,97183.00
2018-11-28T09:43:24.646Z,97192.00
2018-11-28T09:48:27.428Z,97190.00
2018-11-28T09:53:30.226Z,97183.00
2018-11-28T09:58:36.063Z,97185.00
2018-11-28T10:03:41.966Z,97187.00
2018-11-28T10:08:48.555Z,97190.00
2018-11-28T10:13:52.066Z,97187.00
2018-11-28T10:18:57.999Z,97172.00
2018-11-28T10:24:00.782Z,97178.00
2018-11-28T10:29:06.626Z,97170.00
2018-11-28T10:34:11.146Z,97178.00
2018-11-28T10:39:14.715Z,97177.00
2018-11-28T10:44:21.152Z,97167.00
2018-11-28T10:49:23.963Z,97166.00
2018-11-28T10:54:27.662Z,97156.00
2018-11-28T10:59:33.464Z,97152.00
2018-11-28T11:04:45.128Z,97153.00
2018-11-28T11:09:54.288Z,97161.00
2018-11-28T11:14:58.722Z,97163.00
2018-11-28T11:20:02.187Z,97165.00
2018-11-28T11:25:10.955Z,97164.00
2018-11-28T11:30:14.344Z,97160.00
2018-11-28T11:35:20.220Z,97159.00
2018-11-28T11:40:23.173Z,97164.00
2018-11-28T11:45:28.962Z,97170.00
2018-11-28T11:50:31.812Z,97166.00
2018-11-28T11:55:35.716Z,97169.00
2018-11-28T12:00:40.746Z,97165.00
2018-11-28T12:05:48.779Z,97171.00
2018-11-28T12:10:55.326Z,97166.00
2018-11-28T12:15:58.130Z,97167.00
2018-11-28T12:21:05.896Z,97166.00
2018-11-28T12:26:08.780Z,97164.00
2018-11-28T12:31:12.284Z,97165.00
2018-11-28T12:36:18.259Z,97158.00
2018-11-28T12:41:25.830Z,97163.00
2018-11-28T12:46:29.283Z,97166.00
2018-11-28T12:51:35.140Z,97167.00
2018-11-28T12:56:37.953Z,97169.00
2018-11-28T13:01:40.685Z,97153.00
2018-11-28T13:06:46.494Z,97150.00
2018-11-28T13:11:59.982Z,97153.00
2018-11-28T13:16:59.967Z,97159.00
2018-11-28T13:22:03.793Z,97145.00
2018-11-28T13:27:09.698Z,97157.00
2018-11-28T13:32:16.292Z,97147.00
2018-11-28T13:37:22.372Z,97146.00
2018-11-28T13:42:29.327Z,97143.00
2018-11-28T13:47:35.665Z,97133.00
2018-11-28T13:52:40.291Z,97136.00
2018-11-28T13:57:45.425Z,97141.00
2018-11-28T14:02:54.288Z,97136.00
2018-11-28T14:07:57.374Z,97140.00
2018-11-28T14:13:01.859Z,97158.00
2018-11-28T14:18:10.284Z,97168.00
2018-11-28T14:23:16.066Z,97169.00
2018-11-28T14:28:19.806Z,97169.00
2018-11-28T14:33:24.402Z,97169.00
2018-11-28T14:38:27.782Z,97174.00
2018-11-28T14:43:31.311Z,97165.00
2018-11-28T14:48:37.154Z,97168.00
2018-11-28T14:53:48.006Z,97174.00
2018-11-28T14:58:48.698Z,97169.00
2018-11-28T15:03:57.396Z,97181.00
2018-11-28T15:09:08.896Z,97180.00
2018-11-28T15:14:12.320Z,97175.00
2018-11-28T15:19:15.100Z,97171.00
2018-11-28T15:24:18.919Z,97182.00
2018-11-28T15:31:21.227Z,97188.00
2018-11-28T15:36:24.220Z,97173.00
2018-11-28T15:41:27.113Z,97183.00
2018-11-28T15:46:30.848Z,97175.00
2018-11-28T15:51:36.696Z,97176.00
2018-11-28T15:56:39.614Z,97183.00
2018-11-28T16:01:42.558Z,97183.00
2018-11-28T16:06:47.724Z,97190.00
2018-11-28T16:11:57.560Z,97185.00
2018-11-28T16:17:03.467Z,97187.00
2018-11-28T16:22:12.327Z,97187.00
2018-11-28T16:27:21.099Z,97202.00
2018-11-28T16:32:25.055Z,97212.00
2018-11-28T16:37:33.683Z,97204.00
2018-11-28T16:42:40.509Z,97215.00
2018-11-28T16:47:43.422Z,97202.00
2018-11-28T16:52:52.134Z,97195.00
2018-11-28T16:57:58.027Z,97204.00
2018-11-28T17:03:00.859Z,97208.00
2018-11-28T17:08:08.229Z,97195.00
2018-11-28T17:13:11.223Z,97208.00
2018-11-28T17:18:15.883Z,97210.00
2018-11-28T17:23:21.693Z,97215.00
2018-11-28T17:28:25.430Z,97214.00
2018-11-28T17:33:32.831Z,97212.00
2018-11-28T17:38:35.750Z,97210.00
2018-11-28T17:43:44.474Z,97202.00
2018-11-28T17:48:47.363Z,97212.00
2018-11-28T17:53:50.179Z,97209.00
2018-11-28T17:58:56.077Z,97203.00
2018-11-28T18:03:58.874Z,97188.00
2018-11-28T18:09:02.257Z,97187.00
2018-11-28T18:14:10.971Z,97184.00
2018-11-28T18:19:13.791Z,97188.00
2018-11-28T18:24:21.378Z,97199.00
2018-11-28T18:29:24.823Z,97188.00
2018-11-28T18:34:27.596Z,97206.00
2018-11-28T18:39:30.415Z,97205.00
2018-11-28T18:44:36.244Z,97210.00
2018-11-28T18:49:39.815Z,97196.00
2018-11-28T18:54:45.597Z,97196.00
2018-11-28T18:59:48.434Z,97192.00
2018-11-28T19:04:54.174Z,97123.00
2018-11-28T19:09:56.993Z,97198.00
2018-11-28T19:15:02.739Z,97199.00
2018-11-28T19:20:08.553Z,97203.00
2018-11-28T19:25:15.111Z,97214.00
2018-11-28T19:30:31.038Z,97209.00
2018-11-28T19:35:29.551Z,97195.00
2018-11-28T19:40:35.509Z,97191.00
2018-11-28T19:45:38.326Z,97189.00
2018-11-28T19:50:41.134Z,97190.00
2018-11-28T19:55:45.085Z,97183.00
2018-11-28T20:00:47.880Z,97181.00
2018-11-28T20:05:53.640Z,97180.00
2018-11-28T20:10:56.515Z,97170.00
2018-11-28T20:16:05.834Z,97183.00
2018-11-28T20:21:08.688Z,97169.00
2018-11-28T20:26:12.374Z,97172.00
2018-11-28T20:31:18.318Z,97176.00
2018-11-28T20:36:22.030Z,97173.00
2018-11-28T20:41:30.700Z,97176.00
2018-11-28T20:46:36.524Z,97170.00
